Bracken, Texas
Current Conditions -  °F | °C
As of 2:58 AM on Monday 22 Dec 2014 (Local Time) from KRND Reporting Station
Haze Haze  
Wind Chill: 56°   Ceiling: 400
Heat Index: 56°   Visibility: 4mi
Dew Point: 55°   Wind: 9mph
Humidity: 96%   Direction: 200°SSW
Pressure: 29.81"   Gusts: NA
Location:  29.6654°N, 98.3191°W
Report Text: KRND 220858Z AUTO 20008KT 4SM R32R/4500FT BR OVC004 14/13 A2981 RMK AO2 SLP093 T01350129 57018
Loading
Personal Weather Stations






























Interactive Weather Map New forecast layout! Learn more

10-Day Weather Forecast

Advertisements
Track Severe Weather on mobile